首页
METAR-TAF:

METAR-TAF

机场 :

Mitiga International Airport

的黎波里, 利比亚

纬度: 32-54N, 经度: 13-17E, 海拔: 11米

METAR: 丢失

时间: 21:56 (19:56 UTC)

预报

该预报发布于8小时和56分钟前的11:00 UTC
预报有效从20日的 12点(UTC)到 21日的 12点(UTC)
风速10节,风向北转东北
能见度10公里或以上
少量云层高于3000英尺
成为
从 20日的 20点(UTC)到 20日的 22点(UTC)
风速2节,风向多变
几率 40%
从 21日的 03点(UTC)到 21日的 06点(UTC)
能見度: 5000
轻雾
成为
从 21日的 10点(UTC)到 21日的 12点(UTC)
风速10节,风向东转东北

TAF: HLLM 201100Z 2012/2112 03010KT 9999 FEW030 BECMG 2020/2022 VRB02KT PROB40 2103/2106 5000 BR BECMG 2110/2112 06010KT

超过4000个机场的气象观测和天气预报(METAR&TAF报告)。

可查询的气象台以黄色和红色小点在地图上表示。

将鼠标移到小点上方,可查看气象台名称。

然后点击查看天气观测和预报。

如需切换地图:点击带黑十字的绿色按钮放大地图;点击带横线的绿色按钮缩小地图;或者点击绿色箭头查看邻近地区的地图。


METAR-TAF: